Ubc Bremen — P3ZA7 — position and weather

sailwx.info

Track history (hours):
 
Tides and Currents Weather Stations Pressure Air Temp Water Temp Dewpoint Dewpoint Depression Visibility Wind Speed Wind Dir Waves Ship Positions

Ubc Bremen

Last reported at 2014-Oct-10 06:33 UTC. Time now 2014-Oct-22 08:12 UTC.
Position N 29°24' W 094°49'.
Warning: this ship's position is 12 days out of date.

Length 154 m; draft 8.8 m.

Type: Cargo ship. MMSI: 21260200.

Date/timePositionNaut miles runAvg speedWind from/ knotsBaromVisibWave heightAir tempDewpointWater temp
2014-Oct-10 06:33N 29°24' W 094°49'1110.6
2014-Oct-10 05:33N 29°33' W 094°55'1010.2
2014-Oct-10 04:33N 29°42' W 095°00'6 6.2
2014-Oct-10 03:33N 29°44' W 095°07'6 5.3
2014-Oct-10 02:29N 29°44' W 095°13'0 0.0
2014-Oct-08 04:33N 29°44' W 095°14'6 6.4
2014-Oct-08 03:33N 29°45' W 095°06'7 7.0
2014-Oct-08 02:33N 29°41' W 094°59'1212.5
2014-Oct-08 01:33N 29°30' W 094°52'  
2014-Oct-04 00:33N 29°29' W 094°51'1312.6
2014-Oct-03 23:33N 29°40' W 094°58'1 1.5
2014-Oct-03 22:33N 29°41' W 094°59'0 0.0
2014-Oct-03 21:31N 29°41' W 094°59'0 0.0
2014-Oct-03 20:31N 29°41' W 094°59'0 0.0
2014-Oct-03 19:27N 29°41' W 094°59'0 0.0
2014-Oct-03 18:33N 29°41' W 094°59'0 0.0
2014-Oct-03 17:33N 29°41' W 094°59'0 0.0
2014-Oct-03 16:31N 29°41' W 094°59'0 0.0
2014-Oct-03 15:31N 29°41' W 094°59'0 0.0
2014-Oct-03 14:28N 29°41' W 094°59'3 3.2
2014-Oct-03 13:33N 29°38' W 094°58'1211.5
2014-Oct-03 12:33N 29°28' W 094°51'  
Track history (hours):
 
Tides and Currents Weather Stations Pressure Air Temp Water Temp Dewpoint Dewpoint Depression Visibility Wind Speed Wind Dir Waves Ship Positions

Ubc Bremen

Last reported at 2014-Oct-10 06:33 UTC. Time now 2014-Oct-22 08:12 UTC.
Position N 29°24' W 094°49'.
Warning: this ship's position is 12 days out of date.

Length 154 m; draft 8.8 m.

Type: Cargo ship. MMSI: 21260200.

Date/timePositionNaut miles runAvg speedWind from/ knotsBaromVisibWave heightAir tempDewpointWater temp
2014-Oct-10 06:33N 29°24' W 094°49'1110.6
2014-Oct-10 05:33N 29°33' W 094°55'1010.2
2014-Oct-10 04:33N 29°42' W 095°00'6 6.2
2014-Oct-10 03:33N 29°44' W 095°07'6 5.3
2014-Oct-10 02:29N 29°44' W 095°13'0 0.0
2014-Oct-08 04:33N 29°44' W 095°14'6 6.4
2014-Oct-08 03:33N 29°45' W 095°06'7 7.0
2014-Oct-08 02:33N 29°41' W 094°59'1212.5
2014-Oct-08 01:33N 29°30' W 094°52'  
2014-Oct-04 00:33N 29°29' W 094°51'1312.6
2014-Oct-03 23:33N 29°40' W 094°58'1 1.5
2014-Oct-03 22:33N 29°41' W 094°59'0 0.0
2014-Oct-03 21:31N 29°41' W 094°59'0 0.0
2014-Oct-03 20:31N 29°41' W 094°59'0 0.0
2014-Oct-03 19:27N 29°41' W 094°59'0 0.0
2014-Oct-03 18:33N 29°41' W 094°59'0 0.0
2014-Oct-03 17:33N 29°41' W 094°59'0 0.0
2014-Oct-03 16:31N 29°41' W 094°59'0 0.0
2014-Oct-03 15:31N 29°41' W 094°59'0 0.0
2014-Oct-03 14:28N 29°41' W 094°59'3 3.2
2014-Oct-03 13:33N 29°38' W 094°58'1211.5
2014-Oct-03 12:33N 29°28' W 094°51'  

Dump ship's entire track history